createdAt,value
2023-02-11T00:00:08.726Z,11.5
2023-02-11T00:10:08.617Z,11.5
2023-02-11T00:20:08.760Z,11.5
2023-02-11T00:30:08.624Z,11.5
2023-02-11T00:40:08.744Z,11.5
2023-02-11T00:50:08.799Z,11.5
2023-02-11T01:00:08.737Z,11.5
2023-02-11T01:10:08.824Z,11.5
2023-02-11T01:20:08.737Z,11
2023-02-11T01:30:08.813Z,11
2023-02-11T01:40:08.716Z,11
2023-02-11T01:50:08.784Z,11
2023-02-11T02:00:08.721Z,11
2023-02-11T02:10:08.786Z,11
2023-02-11T02:20:08.907Z,11
2023-02-11T02:30:08.763Z,11
2023-02-11T02:40:08.890Z,11
2023-02-11T02:50:08.765Z,11
2023-02-11T03:00:08.911Z,11
2023-02-11T03:10:08.765Z,11
2023-02-11T03:20:08.894Z,11
2023-02-11T03:30:08.962Z,10.5
2023-02-11T03:40:08.885Z,10.5
2023-02-11T03:50:08.964Z,10.5
2023-02-11T04:00:08.875Z,10.5
2023-02-11T04:10:08.960Z,10.5
2023-02-11T04:20:08.867Z,10.5
2023-02-11T04:30:08.947Z,10.5
2023-02-11T04:40:08.904Z,10.5
2023-02-11T04:50:08.969Z,10.5
2023-02-11T05:00:08.888Z,10.5
2023-02-11T05:10:08.956Z,10.5
2023-02-11T05:20:09.076Z,10.5
2023-02-11T05:30:08.948Z,10.5
2023-02-11T05:40:09.074Z,10.5
2023-02-11T05:50:08.933Z,10.5
2023-02-11T06:00:09.072Z,10.5
2023-02-11T06:10:08.944Z,11
2023-02-11T06:20:09.060Z,11
2023-02-11T06:30:08.932Z,11
2023-02-11T06:40:09.059Z,11
2023-02-11T06:50:09.120Z,11
2023-02-11T07:00:09.122Z,11
2023-02-11T07:10:09.139Z,11
2023-02-11T07:20:09.055Z,11
2023-02-11T07:30:09.138Z,11
2023-02-11T07:40:09.043Z,11
2023-02-11T07:50:09.124Z,11
2023-02-11T08:00:09.253Z,11
2023-02-11T08:10:09.099Z,11
2023-02-11T08:20:09.239Z,11.5
2023-02-11T08:30:09.100Z,11.5
2023-02-11T08:40:09.221Z,11.5
2023-02-11T08:50:09.101Z,11.5
2023-02-11T09:00:09.244Z,10.5
2023-02-11T09:10:09.103Z,11
2023-02-11T09:20:10.802Z,11
2023-02-11T09:30:09.287Z,12
2023-02-11T09:40:09.234Z,12.5
2023-02-11T09:50:09.301Z,13
2023-02-11T10:00:09.233Z,13
2023-02-11T10:10:09.282Z,13
2023-02-11T10:20:09.228Z,13
2023-02-11T10:30:09.297Z,14
2023-02-11T10:40:09.253Z,14.5
2023-02-11T10:50:09.305Z,13.5
2023-02-11T11:00:09.420Z,13.5
2023-02-11T11:10:09.292Z,12.5
2023-02-11T11:20:09.544Z,13
2023-02-11T11:30:09.770Z,13
2023-02-11T11:40:09.466Z,13
2023-02-11T11:50:09.453Z,13
2023-02-11T12:00:09.463Z,13
2023-02-11T12:10:09.472Z,12.5
2023-02-11T12:20:09.437Z,12.5
2023-02-11T12:30:09.306Z,13
2023-02-11T12:40:09.439Z,14
2023-02-11T12:49:46.783Z,12.5
2023-02-11T12:59:46.923Z,12.5
2023-02-11T13:09:46.783Z,12.5
2023-02-11T13:19:46.892Z,12.5
2023-02-11T13:29:46.988Z,13
2023-02-11T13:39:46.895Z,13
2023-02-11T13:49:46.970Z,13
2023-02-11T13:59:46.942Z,13
2023-02-11T14:09:47.006Z,13
2023-02-11T14:19:46.923Z,13
2023-02-11T14:29:47.003Z,13
2023-02-11T14:39:46.938Z,13
2023-02-11T14:49:47.010Z,13
2023-02-11T14:59:46.957Z,13
2023-02-11T15:09:47.007Z,13
2023-02-11T15:19:46.959Z,13
2023-02-11T15:29:46.995Z,13
2023-02-11T15:39:47.111Z,13
2023-02-11T15:49:46.982Z,13.5
2023-02-11T15:59:47.126Z,13.5
2023-02-11T16:09:46.986Z,13.5
2023-02-11T16:19:47.100Z,13.5
2023-02-11T16:29:46.984Z,13.5
2023-02-11T16:39:47.117Z,13.5
2023-02-11T16:49:47.174Z,13.5
2023-02-11T16:59:47.098Z,13.5
2023-02-11T17:09:47.166Z,13
2023-02-11T17:19:47.090Z,12.5
2023-02-11T17:29:47.221Z,12.5
2023-02-11T17:39:47.081Z,12.5
2023-02-11T17:49:47.151Z,12.5
2023-02-11T17:59:47.093Z,12.5
2023-02-11T18:09:47.156Z,12.5
2023-02-11T18:19:47.275Z,12.5
2023-02-11T18:29:47.158Z,12.5
2023-02-11T18:39:47.281Z,12.5
2023-02-11T18:49:47.143Z,12.5
2023-02-11T18:59:47.282Z,12.5
2023-02-11T19:09:47.223Z,12.5
2023-02-11T19:19:47.258Z,12
2023-02-11T19:29:47.367Z,12
2023-02-11T19:39:47.265Z,12
2023-02-11T19:49:47.338Z,12.5
2023-02-11T19:59:47.234Z,11.5
2023-02-11T20:09:47.294Z,11.5
2023-02-11T20:19:47.217Z,12
2023-02-11T20:29:47.285Z,12
2023-02-11T20:49:47.470Z,11
2023-02-11T20:59:47.309Z,11
2023-02-11T21:19:47.341Z,11
2023-02-11T21:29:54.007Z,12
2023-02-11T21:39:47.370Z,12
2023-02-11T21:49:47.446Z,12
2023-02-11T21:59:47.357Z,11.5
2023-02-11T22:09:47.455Z,11.5
2023-02-11T22:19:47.353Z,11.5
2023-02-11T22:29:47.460Z,11.5
2023-02-11T22:39:47.548Z,11.5
2023-02-11T22:49:47.417Z,12
2023-02-11T22:59:47.542Z,12.5
2023-02-11T23:09:47.447Z,13
2023-02-11T23:19:47.539Z,13
2023-02-11T23:29:47.423Z,13
2023-02-11T23:39:48.107Z,12.5
2023-02-11T23:49:47.404Z,13
2023-02-11T23:59:47.536Z,12.5
